Duncan, OK (73533)

7:05 PM CDT on May 27, 2017 (GMT -0500)
Duncan Golf and Tennis Club | | Change Station
Active Advisory: Heat Advisory

Elev 1165 ft 34.53 °N, 97.96 °W | Updated 5 seconds ago

Clear
Clear
94.5 °F
Feels Like 103 °F
N
0.0
Wind Variable Wind from SSW
Gusts 2.0 mph

Today
High -- | Low -- °F
--% Chance of Precip.
Yesterday
High -- | Low -- °F
Precip. -- in
Pressure 29.71 in
Visibility 10.0 miles
Clouds Clear
Heat Index 103 °F
Dew Point 72 °F
Humidity 48%
Rainfall 0.00 in
Snow Depth Not available.
6:22 AM 8:36 PM
Waxing Crescent, 7% visible
METAR KDUC 272355Z AUTO 15005KT 10SM CLR 35/23 A2971 RMK AO2 LTG DSNT E T03450226 10357 20319 403570218
Pressure 29.71 in
Visibility 10.0 miles
Clouds Clear
Heat Index 103 °F
Dew Point 72 °F
Humidity 48%
Rainfall 0.00 in
Snow Depth Not available.
6:22 AM 8:36 PM
Waxing Crescent, 7% visible
METAR KDUC 272355Z AUTO 15005KT 10SM CLR 35/23 A2971 RMK AO2 LTG DSNT E T03450226 10357 20319 403570218

Get Your Daily Forecast Email!

Thanks for signing up!

Be on the lookout for a verification email in your inbox.

You'll start receiving severe weather alerts in your inbox..

×

10-Day Weather Forecast

Almanac

Astronomy

May. 27, 2017 Rise Set
Actual Time
Civil Twilight
Nautical Twilight
Astronomical Twilight
Moon
Length of Visible Light
Length of Day
Tomorrow will be .
, % of the Moon is Illuminated

Today's Extremes

State Highs State Lows

Community

WunderPhotos

Category 6

Welcome to Category 6. This is the collective home for Weather Underground's featured writeups by Dr. Jeff Masters (right), Bob Henson (left), Chris Burt, and other regular contributors.

Nearby

Air Quality

  Air Quality AQ Index Pollutant
Not available.

Snow Depth

Station Depth Elevation

Earthquake Activity

City Distance Mag. Time & Date
Minimum magnitude displayed is 2.5.

Coastal Water Temperatures

Place Temperature

Stations

Nearby Weather Stations

Station Location Temp. Windchill Dew Point Humidity Wind Precip. Elev Updated Type
                   

Watches & Warnings

Heat Advisory
Issued: 6:55 PM CDT May. 27, 2017 – National Weather Service

... Heat advisory will expire at 7 PM CDT this evening...

The heat index has fallen below 105 degrees at most locations.
The heat index will still remain in the upper 90s to low 100s
early this evening, so take extra precautions if you plan to work
or spend time outside.


Mahale